Ponta Grossa, Brazil
Current Conditions -  °F | °C
As of 5:00 PM on Friday 24 Oct 2014 (Local Time) from SBBI Reporting Station
Scattered Clouds Scattered Clouds  
Wind Chill: 77°   Ceiling: Unl
Heat Index: 79°   Visibility: 6mi
Dew Point: 61°   Wind: 2mph
Humidity: 57%   Direction: 20°NNE
Pressure: 30"   Gusts: NA
Location:  25.09°S, 50.16°W
Report Text: SBBI 241900Z 02002KT 9999 FEW030 SCT070 25/16 Q1016
Loading
Personal Weather Stations






























Interactive Weather Map
Tropical Storm Tracking
New forecast layout! Learn more

10-Day Weather Forecast

Advertisements
Track Severe Weather on mobile